sensor_id;sensor_type;location;lat;lon;timestamp;temperature;humidity
12847;DHT22;6492;48.128;8.320;2024-03-23T00:56:28;9.80;24.10
12847;DHT22;6492;48.128;8.320;2024-03-23T01:00:29;10.00;23.30
12847;DHT22;6492;48.128;8.320;2024-03-23T01:04:31;10.00;23.10
12847;DHT22;6492;48.128;8.320;2024-03-23T01:08:33;10.10;23.00
12847;DHT22;6492;48.128;8.320;2024-03-23T01:12:35;10.10;23.20
12847;DHT22;6492;48.128;8.320;2024-03-23T01:16:35;10.20;22.80
12847;DHT22;6492;48.128;8.320;2024-03-23T01:20:37;10.30;22.40
12847;DHT22;6492;48.128;8.320;2024-03-23T01:24:40;10.40;22.50
12847;DHT22;6492;48.128;8.320;2024-03-23T01:28:42;10.40;22.30
12847;DHT22;6492;48.128;8.320;2024-03-23T01:32:45;10.30;22.50
12847;DHT22;6492;48.128;8.320;2024-03-23T01:36:47;10.20;23.40
12847;DHT22;6492;48.128;8.320;2024-03-23T01:40:56;10.10;23.90
12847;DHT22;6492;48.128;8.320;2024-03-23T01:44:58;10.30;23.80
12847;DHT22;6492;48.128;8.320;2024-03-23T01:49:00;10.40;23.00
12847;DHT22;6492;48.128;8.320;2024-03-23T01:53:02;10.50;23.60
12847;DHT22;6492;48.128;8.320;2024-03-23T01:57:07;10.50;22.90
12847;DHT22;6492;48.128;8.320;2024-03-23T02:01:09;10.60;22.80
12847;DHT22;6492;48.128;8.320;2024-03-23T02:05:11;10.60;22.00
12847;DHT22;6492;48.128;8.320;2024-03-23T02:09:13;10.70;21.50
12847;DHT22;6492;48.128;8.320;2024-03-23T02:13:16;10.70;21.70
12847;DHT22;6492;48.128;8.320;2024-03-23T02:17:17;10.70;21.70
12847;DHT22;6492;48.128;8.320;2024-03-23T02:21:19;10.70;22.20
12847;DHT22;6492;48.128;8.320;2024-03-23T02:25:22;10.70;22.00
12847;DHT22;6492;48.128;8.320;2024-03-23T02:29:24;10.70;22.40
12847;DHT22;6492;48.128;8.320;2024-03-23T02:33:26;10.70;22.50
12847;DHT22;6492;48.128;8.320;2024-03-23T02:37:28;10.70;22.40
12847;DHT22;6492;48.128;8.320;2024-03-23T02:41:31;10.70;21.70
12847;DHT22;6492;48.128;8.320;2024-03-23T02:45:32;10.70;19.80
12847;DHT22;6492;48.128;8.320;2024-03-23T02:49:34;10.70;19.30
12847;DHT22;6492;48.128;8.320;2024-03-23T02:53:35;10.60;17.50
12847;DHT22;6492;48.128;8.320;2024-03-23T02:57:38;10.50;17.80
12847;DHT22;6492;48.128;8.320;2024-03-23T03:01:40;10.40;17.00
12847;DHT22;6492;48.128;8.320;2024-03-23T03:05:42;10.20;17.70
12847;DHT22;6492;48.128;8.320;2024-03-23T03:09:43;10.10;17.80
12847;DHT22;6492;48.128;8.320;2024-03-23T03:13:47;10.00;18.00
12847;DHT22;6492;48.128;8.320;2024-03-23T03:17:48;9.90;18.50
12847;DHT22;6492;48.128;8.320;2024-03-23T03:21:50;9.80;18.50
12847;DHT22;6492;48.128;8.320;2024-03-23T03:25:52;9.80;18.30
12847;DHT22;6492;48.128;8.320;2024-03-23T03:29:55;9.70;18.10
12847;DHT22;6492;48.128;8.320;2024-03-23T03:33:57;9.70;18.40
12847;DHT22;6492;48.128;8.320;2024-03-23T03:37:59;9.70;18.40
12847;DHT22;6492;48.128;8.320;2024-03-23T03:42:00;9.80;18.60
12847;DHT22;6492;48.128;8.320;2024-03-23T03:46:08;9.90;18.70
12847;DHT22;6492;48.128;8.320;2024-03-23T03:50:11;9.90;18.90
12847;DHT22;6492;48.128;8.320;2024-03-23T03:54:13;9.90;18.80
12847;DHT22;6492;48.128;8.320;2024-03-23T03:58:14;9.80;19.10
12847;DHT22;6492;48.128;8.320;2024-03-23T04:02:17;9.80;19.70
12847;DHT22;6492;48.128;8.320;2024-03-23T04:06:19;9.80;19.80
12847;DHT22;6492;48.128;8.320;2024-03-23T04:10:21;9.80;19.90
12847;DHT22;6492;48.128;8.320;2024-03-23T04:14:23;9.80;21.40
12847;DHT22;6492;48.128;8.320;2024-03-23T04:18:26;9.80;22.00
12847;DHT22;6492;48.128;8.320;2024-03-23T04:22:28;9.80;23.10
12847;DHT22;6492;48.128;8.320;2024-03-23T04:26:29;9.60;25.30
12847;DHT22;6492;48.128;8.320;2024-03-23T04:30:31;9.30;28.40
12847;DHT22;6492;48.128;8.320;2024-03-23T04:34:34;9.20;29.00
12847;DHT22;6492;48.128;8.320;2024-03-23T04:38:36;9.10;29.40
12847;DHT22;6492;48.128;8.320;2024-03-23T04:42:38;9.10;30.50
12847;DHT22;6492;48.128;8.320;2024-03-23T04:46:39;9.10;31.30
12847;DHT22;6492;48.128;8.320;2024-03-23T04:50:43;9.10;30.00
12847;DHT22;6492;48.128;8.320;2024-03-23T04:54:44;9.20;29.70
12847;DHT22;6492;48.128;8.320;2024-03-23T04:58:46;9.20;30.00
12847;DHT22;6492;48.128;8.320;2024-03-23T05:02:48;9.30;29.40
12847;DHT22;6492;48.128;8.320;2024-03-23T05:06:51;9.30;29.20
12847;DHT22;6492;48.128;8.320;2024-03-23T05:10:54;9.30;28.50
12847;DHT22;6492;48.128;8.320;2024-03-23T05:14:55;9.40;27.30
12847;DHT22;6492;48.128;8.320;2024-03-23T05:18:57;9.40;27.20
12847;DHT22;6492;48.128;8.320;2024-03-23T05:23:00;8.90;31.10
12847;DHT22;6492;48.128;8.320;2024-03-23T05:27:02;8.20;38.20
12847;DHT22;6492;48.128;8.320;2024-03-23T05:31:04;7.70;44.60
12847;DHT22;6492;48.128;8.320;2024-03-23T05:35:06;7.40;52.50
12847;DHT22;6492;48.128;8.320;2024-03-23T05:39:09;7.20;56.90
12847;DHT22;6492;48.128;8.320;2024-03-23T05:43:11;7.00;59.80
12847;DHT22;6492;48.128;8.320;2024-03-23T05:47:13;6.90;61.70
12847;DHT22;6492;48.128;8.320;2024-03-23T05:51:16;6.70;63.30
12847;DHT22;6492;48.128;8.320;2024-03-23T05:55:19;6.50;62.40
12847;DHT22;6492;48.128;8.320;2024-03-23T05:59:21;6.30;59.50
12847;DHT22;6492;48.128;8.320;2024-03-23T06:03:23;6.20;60.60
12847;DHT22;6492;48.128;8.320;2024-03-23T06:07:25;6.00;62.50
12847;DHT22;6492;48.128;8.320;2024-03-23T06:11:28;6.00;64.00
12847;DHT22;6492;48.128;8.320;2024-03-23T06:15:30;5.90;65.20
12847;DHT22;6492;48.128;8.320;2024-03-23T06:19:32;5.80;64.00
12847;DHT22;6492;48.128;8.320;2024-03-23T06:23:34;5.70;65.00
12847;DHT22;6492;48.128;8.320;2024-03-23T06:27:37;5.60;65.20
12847;DHT22;6492;48.128;8.320;2024-03-23T06:31:39;5.50;66.30
12847;DHT22;6492;48.128;8.320;2024-03-23T06:35:41;5.50;67.30
12847;DHT22;6492;48.128;8.320;2024-03-23T06:39:43;5.40;66.80
12847;DHT22;6492;48.128;8.320;2024-03-23T06:43:48;5.10;63.50
12847;DHT22;6492;48.128;8.320;2024-03-23T06:47:50;4.70;62.40
12847;DHT22;6492;48.128;8.320;2024-03-23T06:51:51;4.50;62.20
12847;DHT22;6492;48.128;8.320;2024-03-23T06:55:54;4.40;62.80
12847;DHT22;6492;48.128;8.320;2024-03-23T06:59:56;4.30;62.70
12847;DHT22;6492;48.128;8.320;2024-03-23T07:03:58;4.30;63.10
12847;DHT22;6492;48.128;8.320;2024-03-23T07:07:59;4.20;62.10
12847;DHT22;6492;48.128;8.320;2024-03-23T07:12:01;4.00;61.80
12847;DHT22;6492;48.128;8.320;2024-03-23T07:16:05;4.00;62.00
12847;DHT22;6492;48.128;8.320;2024-03-23T07:20:07;4.00;62.90
12847;DHT22;6492;48.128;8.320;2024-03-23T07:24:11;3.90;62.40
12847;DHT22;6492;48.128;8.320;2024-03-23T07:28:13;3.80;63.20
12847;DHT22;6492;48.128;8.320;2024-03-23T07:32:16;3.80;64.30
12847;DHT22;6492;48.128;8.320;2024-03-23T07:36:18;3.80;66.20
12847;DHT22;6492;48.128;8.320;2024-03-23T07:40:19;3.80;65.60
12847;DHT22;6492;48.128;8.320;2024-03-23T07:44:21;3.80;64.80
12847;DHT22;6492;48.128;8.320;2024-03-23T07:48:24;3.80;65.40
12847;DHT22;6492;48.128;8.320;2024-03-23T07:52:28;3.70;66.30
12847;DHT22;6492;48.128;8.320;2024-03-23T07:56:30;3.80;66.10
12847;DHT22;6492;48.128;8.320;2024-03-23T08:00:33;3.70;65.00
12847;DHT22;6492;48.128;8.320;2024-03-23T08:04:36;3.70;62.90
12847;DHT22;6492;48.128;8.320;2024-03-23T08:08:38;3.70;61.30
12847;DHT22;6492;48.128;8.320;2024-03-23T08:12:40;3.70;57.10
12847;DHT22;6492;48.128;8.320;2024-03-23T08:16:42;3.70;51.70
12847;DHT22;6492;48.128;8.320;2024-03-23T08:20:56;3.80;51.20
12847;DHT22;6492;48.128;8.320;2024-03-23T08:24:58;3.70;47.60
12847;DHT22;6492;48.128;8.320;2024-03-23T08:29:00;3.70;47.90
12847;DHT22;6492;48.128;8.320;2024-03-23T08:33:02;3.70;43.30
12847;DHT22;6492;48.128;8.320;2024-03-23T08:37:05;3.80;46.20
12847;DHT22;6492;48.128;8.320;2024-03-23T08:41:08;4.10;43.70
12847;DHT22;6492;48.128;8.320;2024-03-23T08:45:10;4.30;39.80
12847;DHT22;6492;48.128;8.320;2024-03-23T08:49:11;4.50;38.70
12847;DHT22;6492;48.128;8.320;2024-03-23T08:53:16;4.40;35.90
12847;DHT22;6492;48.128;8.320;2024-03-23T08:57:18;4.50;37.30
12847;DHT22;6492;48.128;8.320;2024-03-23T09:01:19;4.50;35.00
12847;DHT22;6492;48.128;8.320;2024-03-23T09:05:21;4.60;31.90
12847;DHT22;6492;48.128;8.320;2024-03-23T09:09:26;4.50;31.30
12847;DHT22;6492;48.128;8.320;2024-03-23T09:13:27;4.60;31.80
12847;DHT22;6492;48.128;8.320;2024-03-23T09:17:29;4.70;29.70
12847;DHT22;6492;48.128;8.320;2024-03-23T09:21:31;4.70;28.30
12847;DHT22;6492;48.128;8.320;2024-03-23T09:25:37;5.00;27.30
12847;DHT22;6492;48.128;8.320;2024-03-23T09:29:39;5.00;24.30
12847;DHT22;6492;48.128;8.320;2024-03-23T09:33:42;4.70;24.90
12847;DHT22;6492;48.128;8.320;2024-03-23T09:37:45;4.60;27.30
12847;DHT22;6492;48.128;8.320;2024-03-23T09:41:48;4.80;25.90
12847;DHT22;6492;48.128;8.320;2024-03-23T09:45:50;5.00;25.80
12847;DHT22;6492;48.128;8.320;2024-03-23T09:49:52;5.00;24.90
12847;DHT22;6492;48.128;8.320;2024-03-23T09:53:54;5.00;23.80
12847;DHT22;6492;48.128;8.320;2024-03-23T09:57:57;5.40;23.50
12847;DHT22;6492;48.128;8.320;2024-03-23T10:01:59;5.70;22.00
12847;DHT22;6492;48.128;8.320;2024-03-23T10:06:02;5.70;17.60
12847;DHT22;6492;48.128;8.320;2024-03-23T10:10:11;5.70;19.80
12847;DHT22;6492;48.128;8.320;2024-03-23T10:14:28;5.90;19.90
12847;DHT22;6492;48.128;8.320;2024-03-23T10:18:30;6.20;18.00
12847;DHT22;6492;48.128;8.320;2024-03-23T10:22:37;6.50;15.80
12847;DHT22;6492;48.128;8.320;2024-03-23T10:26:39;7.00;15.90
12847;DHT22;6492;48.128;8.320;2024-03-23T10:30:43;6.90;13.80
12847;DHT22;6492;48.128;8.320;2024-03-23T10:34:45;6.90;13.70
12847;DHT22;6492;48.128;8.320;2024-03-23T10:38:47;7.10;14.90
12847;DHT22;6492;48.128;8.320;2024-03-23T10:42:52;7.10;12.40
12847;DHT22;6492;48.128;8.320;2024-03-23T10:46:59;6.70;12.90
12847;DHT22;6492;48.128;8.320;2024-03-23T10:51:03;6.30;16.00
12847;DHT22;6492;48.128;8.320;2024-03-23T10:55:06;5.80;18.60
12847;DHT22;6492;48.128;8.320;2024-03-23T10:59:10;4.80;21.60
12847;DHT22;6492;48.128;8.320;2024-03-23T11:03:33;4.00;25.70
12847;DHT22;6492;48.128;8.320;2024-03-23T11:07:36;3.30;29.40
12847;DHT22;6492;48.128;8.320;2024-03-23T11:11:38;3.00;34.10
12847;DHT22;6492;48.128;8.320;2024-03-23T11:15:41;2.70;37.80
12847;DHT22;6492;48.128;8.320;2024-03-23T11:19:44;2.60;39.70
12847;DHT22;6492;48.128;8.320;2024-03-23T11:23:54;2.40;40.40
12847;DHT22;6492;48.128;8.320;2024-03-23T11:27:56;2.00;41.90
12847;DHT22;6492;48.128;8.320;2024-03-23T11:31:59;1.60;44.80
12847;DHT22;6492;48.128;8.320;2024-03-23T11:36:05;1.30;48.40
12847;DHT22;6492;48.128;8.320;2024-03-23T11:40:18;0.90;53.20
12847;DHT22;6492;48.128;8.320;2024-03-23T11:44:21;0.90;58.90
12847;DHT22;6492;48.128;8.320;2024-03-23T11:48:23;1.20;62.90
12847;DHT22;6492;48.128;8.320;2024-03-23T11:52:27;1.70;64.20
12847;DHT22;6492;48.128;8.320;2024-03-23T11:56:29;2.30;65.50
12847;DHT22;6492;48.128;8.320;2024-03-23T12:00:31;2.90;61.10
12847;DHT22;6492;48.128;8.320;2024-03-23T12:04:33;3.30;54.20
12847;DHT22;6492;48.128;8.320;2024-03-23T12:08:37;3.70;47.10
12847;DHT22;6492;48.128;8.320;2024-03-23T12:12:39;3.90;44.40
12847;DHT22;6492;48.128;8.320;2024-03-23T12:16:40;3.90;40.40
12847;DHT22;6492;48.128;8.320;2024-03-23T12:20:42;3.90;34.60
12847;DHT22;6492;48.128;8.320;2024-03-23T12:24:45;4.20;39.60
12847;DHT22;6492;48.128;8.320;2024-03-23T12:28:47;4.70;41.20
12847;DHT22;6492;48.128;8.320;2024-03-23T12:32:48;5.30;39.30
12847;DHT22;6492;48.128;8.320;2024-03-23T12:36:50;5.60;32.90
12847;DHT22;6492;48.128;8.320;2024-03-23T12:40:56;5.70;28.60
12847;DHT22;6492;48.128;8.320;2024-03-23T12:44:58;5.70;26.60
12847;DHT22;6492;48.128;8.320;2024-03-23T12:48:59;5.90;23.70
12847;DHT22;6492;48.128;8.320;2024-03-23T12:53:01;5.70;26.90
12847;DHT22;6492;48.128;8.320;2024-03-23T12:57:04;6.00;27.60
12847;DHT22;6492;48.128;8.320;2024-03-23T13:01:06;6.30;26.10
12847;DHT22;6492;48.128;8.320;2024-03-23T13:05:08;6.30;21.50
12847;DHT22;6492;48.128;8.320;2024-03-23T13:09:10;6.60;18.90
12847;DHT22;6492;48.128;8.320;2024-03-23T13:13:13;6.50;19.20
12847;DHT22;6492;48.128;8.320;2024-03-23T13:17:15;6.90;20.50
12847;DHT22;6492;48.128;8.320;2024-03-23T13:21:17;7.30;18.10
12847;DHT22;6492;48.128;8.320;2024-03-23T13:25:31;7.20;16.10
12847;DHT22;6492;48.128;8.320;2024-03-23T13:29:35;6.70;17.10
12847;DHT22;6492;48.128;8.320;2024-03-23T13:33:38;5.40;20.60
12847;DHT22;6492;48.128;8.320;2024-03-23T13:37:40;4.30;25.50
12847;DHT22;6492;48.128;8.320;2024-03-23T13:41:43;3.40;30.30
12847;DHT22;6492;48.128;8.320;2024-03-23T13:45:46;3.00;34.60
12847;DHT22;6492;48.128;8.320;2024-03-23T13:49:49;2.80;40.40
12847;DHT22;6492;48.128;8.320;2024-03-23T13:53:51;3.40;45.30
12847;DHT22;6492;48.128;8.320;2024-03-23T13:57:52;4.20;42.70
12847;DHT22;6492;48.128;8.320;2024-03-23T14:01:56;4.80;36.60
12847;DHT22;6492;48.128;8.320;2024-03-23T14:05:58;5.50;32.50
12847;DHT22;6492;48.128;8.320;2024-03-23T14:10:02;5.90;25.50
12847;DHT22;6492;48.128;8.320;2024-03-23T14:14:03;5.70;25.00
12847;DHT22;6492;48.128;8.320;2024-03-23T14:18:07;5.20;21.50
12847;DHT22;6492;48.128;8.320;2024-03-23T14:22:09;5.00;24.80
12847;DHT22;6492;48.128;8.320;2024-03-23T14:26:11;5.10;24.90
12847;DHT22;6492;48.128;8.320;2024-03-23T14:30:13;5.00;21.20
12847;DHT22;6492;48.128;8.320;2024-03-23T14:34:16;4.60;22.60
12847;DHT22;6492;48.128;8.320;2024-03-23T14:38:18;4.30;26.00
12847;DHT22;6492;48.128;8.320;2024-03-23T14:42:20;4.10;27.60
12847;DHT22;6492;48.128;8.320;2024-03-23T14:46:22;4.00;28.40
12847;DHT22;6492;48.128;8.320;2024-03-23T14:50:25;3.80;29.10
12847;DHT22;6492;48.128;8.320;2024-03-23T14:54:27;3.50;31.00
12847;DHT22;6492;48.128;8.320;2024-03-23T14:58:28;3.20;31.90
12847;DHT22;6492;48.128;8.320;2024-03-23T15:02:30;2.80;32.90
12847;DHT22;6492;48.128;8.320;2024-03-23T15:06:33;2.50;36.00
12847;DHT22;6492;48.128;8.320;2024-03-23T15:10:35;2.30;38.70
12847;DHT22;6492;48.128;8.320;2024-03-23T15:14:37;2.20;40.30
12847;DHT22;6492;48.128;8.320;2024-03-23T15:18:39;2.10;40.70
12847;DHT22;6492;48.128;8.320;2024-03-23T15:22:43;2.10;42.40
12847;DHT22;6492;48.128;8.320;2024-03-23T15:26:45;2.00;43.00
12847;DHT22;6492;48.128;8.320;2024-03-23T15:30:47;1.80;43.80
12847;DHT22;6492;48.128;8.320;2024-03-23T15:34:48;1.60;45.40
12847;DHT22;6492;48.128;8.320;2024-03-23T15:38:51;1.40;47.60
12847;DHT22;6492;48.128;8.320;2024-03-23T15:42:55;1.40;50.20
12847;DHT22;6492;48.128;8.320;2024-03-23T15:46:57;1.40;51.10
12847;DHT22;6492;48.128;8.320;2024-03-23T15:51:01;1.40;51.00
12847;DHT22;6492;48.128;8.320;2024-03-23T15:55:05;1.40;50.90
12847;DHT22;6492;48.128;8.320;2024-03-23T15:59:07;1.30;50.20
12847;DHT22;6492;48.128;8.320;2024-03-23T16:03:09;1.10;50.70
12847;DHT22;6492;48.128;8.320;2024-03-23T16:07:11;1.00;52.80
12847;DHT22;6492;48.128;8.320;2024-03-23T16:11:15;0.80;55.10
12847;DHT22;6492;48.128;8.320;2024-03-23T16:15:18;0.60;57.00
12847;DHT22;6492;48.128;8.320;2024-03-23T16:19:19;0.60;58.60
12847;DHT22;6492;48.128;8.320;2024-03-23T16:23:22;0.60;60.40
12847;DHT22;6492;48.128;8.320;2024-03-23T16:27:26;0.60;61.90
12847;DHT22;6492;48.128;8.320;2024-03-23T16:31:27;0.60;62.10
12847;DHT22;6492;48.128;8.320;2024-03-23T16:35:29;0.60;62.70
12847;DHT22;6492;48.128;8.320;2024-03-23T16:39:31;0.60;62.70
12847;DHT22;6492;48.128;8.320;2024-03-23T16:43:35;0.60;62.80
12847;DHT22;6492;48.128;8.320;2024-03-23T16:47:37;0.60;62.10
12847;DHT22;6492;48.128;8.320;2024-03-23T16:51:41;0.80;61.90
12847;DHT22;6492;48.128;8.320;2024-03-23T16:55:43;0.80;56.50
12847;DHT22;6492;48.128;8.320;2024-03-23T16:59:47;0.70;55.70
12847;DHT22;6492;48.128;8.320;2024-03-23T17:03:49;0.60;56.70
12847;DHT22;6492;48.128;8.320;2024-03-23T17:07:51;0.50;57.30
12847;DHT22;6492;48.128;8.320;2024-03-23T17:11:53;0.50;57.90
12847;DHT22;6492;48.128;8.320;2024-03-23T17:15:56;0.40;58.30
12847;DHT22;6492;48.128;8.320;2024-03-23T17:19:59;0.40;59.50
12847;DHT22;6492;48.128;8.320;2024-03-23T17:24:01;0.40;60.80
12847;DHT22;6492;48.128;8.320;2024-03-23T17:28:03;0.50;61.30
12847;DHT22;6492;48.128;8.320;2024-03-23T17:32:07;0.50;61.10
12847;DHT22;6492;48.128;8.320;2024-03-23T17:36:09;0.50;60.50
12847;DHT22;6492;48.128;8.320;2024-03-23T17:40:11;0.40;60.60
12847;DHT22;6492;48.128;8.320;2024-03-23T17:44:13;0.40;60.60
12847;DHT22;6492;48.128;8.320;2024-03-23T17:48:19;0.40;60.40
12847;DHT22;6492;48.128;8.320;2024-03-23T17:52:20;0.40;61.00
12847;DHT22;6492;48.128;8.320;2024-03-23T17:56:23;0.50;61.40
12847;DHT22;6492;48.128;8.320;2024-03-23T18:00:24;0.50;62.10
12847;DHT22;6492;48.128;8.320;2024-03-23T18:04:28;0.40;62.20
12847;DHT22;6492;48.128;8.320;2024-03-23T18:08:29;0.30;63.00
12847;DHT22;6492;48.128;8.320;2024-03-23T18:12:31;0.30;61.90
12847;DHT22;6492;48.128;8.320;2024-03-23T18:16:34;0.20;60.80
12847;DHT22;6492;48.128;8.320;2024-03-23T18:20:37;0.10;60.90
12847;DHT22;6492;48.128;8.320;2024-03-23T18:24:39;0.10;61.50
12847;DHT22;6492;48.128;8.320;2024-03-23T18:28:40;0.10;61.80
12847;DHT22;6492;48.128;8.320;2024-03-23T18:32:41;0.10;62.20
12847;DHT22;6492;48.128;8.320;2024-03-23T18:36:44;0.00;62.90
12847;DHT22;6492;48.128;8.320;2024-03-23T18:40:47;0.10;63.30
12847;DHT22;6492;48.128;8.320;2024-03-23T18:44:49;0.10;63.30
12847;DHT22;6492;48.128;8.320;2024-03-23T18:48:51;0.10;63.80
12847;DHT22;6492;48.128;8.320;2024-03-23T18:52:54;0.20;64.00
12847;DHT22;6492;48.128;8.320;2024-03-23T18:56:56;0.30;64.20
12847;DHT22;6492;48.128;8.320;2024-03-23T19:00:59;0.30;63.70
12847;DHT22;6492;48.128;8.320;2024-03-23T19:05:00;0.30;63.30
12847;DHT22;6492;48.128;8.320;2024-03-23T19:09:03;0.30;63.60
12847;DHT22;6492;48.128;8.320;2024-03-23T19:13:05;0.30;64.00
12847;DHT22;6492;48.128;8.320;2024-03-23T19:17:07;0.30;64.60
12847;DHT22;6492;48.128;8.320;2024-03-23T19:21:09;0.20;65.10
12847;DHT22;6492;48.128;8.320;2024-03-23T19:25:12;0.20;65.60
12847;DHT22;6492;48.128;8.320;2024-03-23T19:29:17;0.20;66.00
12847;DHT22;6492;48.128;8.320;2024-03-23T19:33:21;0.10;66.20
12847;DHT22;6492;48.128;8.320;2024-03-23T19:37:23;0.10;66.70
12847;DHT22;6492;48.128;8.320;2024-03-23T19:41:26;0.10;67.10
12847;DHT22;6492;48.128;8.320;2024-03-23T19:45:28;0.10;67.40
12847;DHT22;6492;48.128;8.320;2024-03-23T19:49:30;0.10;67.40
12847;DHT22;6492;48.128;8.320;2024-03-23T19:53:32;0.00;67.10
12847;DHT22;6492;48.128;8.320;2024-03-23T19:57:35;0.00;67.00
12847;DHT22;6492;48.128;8.320;2024-03-23T20:01:36;0.00;67.10
12847;DHT22;6492;48.128;8.320;2024-03-23T20:05:38;0.00;67.50
12847;DHT22;6492;48.128;8.320;2024-03-23T20:09:40;0.10;67.70
12847;DHT22;6492;48.128;8.320;2024-03-23T20:13:42;0.10;67.90
12847;DHT22;6492;48.128;8.320;2024-03-23T20:17:44;0.10;67.90
12847;DHT22;6492;48.128;8.320;2024-03-23T20:21:48;0.10;68.10
12847;DHT22;6492;48.128;8.320;2024-03-23T20:25:50;0.10;68.40
12847;DHT22;6492;48.128;8.320;2024-03-23T20:29:54;0.20;68.70
12847;DHT22;6492;48.128;8.320;2024-03-23T20:33:55;0.10;68.90
12847;DHT22;6492;48.128;8.320;2024-03-23T20:37:57;0.10;68.70
12847;DHT22;6492;48.128;8.320;2024-03-23T20:41:59;0.10;68.30
12847;DHT22;6492;48.128;8.320;2024-03-23T20:46:03;0.00;68.10
12847;DHT22;6492;48.128;8.320;2024-03-23T20:50:08;0.00;68.00
12847;DHT22;6492;48.128;8.320;2024-03-23T20:54:10;-0.10;68.00
12847;DHT22;6492;48.128;8.320;2024-03-23T20:58:13;-0.10;67.90
12847;DHT22;6492;48.128;8.320;2024-03-23T21:02:17;-0.10;68.10
12847;DHT22;6492;48.128;8.320;2024-03-23T21:06:17;-0.10;68.20
12847;DHT22;6492;48.128;8.320;2024-03-23T21:10:19;0.00;68.30
12847;DHT22;6492;48.128;8.320;2024-03-23T21:14:21;0.00;68.00
12847;DHT22;6492;48.128;8.320;2024-03-23T21:18:26;-0.10;67.80
12847;DHT22;6492;48.128;8.320;2024-03-23T21:22:28;-0.20;67.20
12847;DHT22;6492;48.128;8.320;2024-03-23T21:26:30;-0.20;66.70
12847;DHT22;6492;48.128;8.320;2024-03-23T21:30:32;-0.30;66.60
12847;DHT22;6492;48.128;8.320;2024-03-23T21:34:38;-0.30;66.70
12847;DHT22;6492;48.128;8.320;2024-03-23T21:38:40;-0.30;66.50
12847;DHT22;6492;48.128;8.320;2024-03-23T21:42:41;-0.40;66.00
12847;DHT22;6492;48.128;8.320;2024-03-23T21:46:45;-0.30;65.80
12847;DHT22;6492;48.128;8.320;2024-03-23T21:50:48;-0.30;65.70
12847;DHT22;6492;48.128;8.320;2024-03-23T21:54:50;-0.30;65.70
12847;DHT22;6492;48.128;8.320;2024-03-23T21:58:53;-0.20;65.70
12847;DHT22;6492;48.128;8.320;2024-03-23T22:02:55;-0.20;64.70
12847;DHT22;6492;48.128;8.320;2024-03-23T22:06:58;-0.10;64.30
12847;DHT22;6492;48.128;8.320;2024-03-23T22:11:00;-0.10;63.70
12847;DHT22;6492;48.128;8.320;2024-03-23T22:15:03;-0.10;63.40
12847;DHT22;6492;48.128;8.320;2024-03-23T22:19:05;-0.10;63.20
12847;DHT22;6492;48.128;8.320;2024-03-23T22:23:08;-0.10;63.10
12847;DHT22;6492;48.128;8.320;2024-03-23T22:27:10;-0.10;62.90
12847;DHT22;6492;48.128;8.320;2024-03-23T22:31:11;-0.10;62.40
12847;DHT22;6492;48.128;8.320;2024-03-23T22:35:13;-0.10;61.90
12847;DHT22;6492;48.128;8.320;2024-03-23T22:39:16;0.00;61.80
12847;DHT22;6492;48.128;8.320;2024-03-23T22:43:21;0.00;61.70
12847;DHT22;6492;48.128;8.320;2024-03-23T22:47:22;0.00;61.70
12847;DHT22;6492;48.128;8.320;2024-03-23T22:51:24;0.00;62.20
12847;DHT22;6492;48.128;8.320;2024-03-23T22:55:27;0.10;63.10
12847;DHT22;6492;48.128;8.320;2024-03-23T22:59:32;0.10;63.40
12847;DHT22;6492;48.128;8.320;2024-03-23T23:03:34;0.10;64.20
12847;DHT22;6492;48.128;8.320;2024-03-23T23:07:35;0.20;64.70
12847;DHT22;6492;48.128;8.320;2024-03-23T23:11:39;0.20;64.70
12847;DHT22;6492;48.128;8.320;2024-03-23T23:15:41;0.20;65.30
12847;DHT22;6492;48.128;8.320;2024-03-23T23:19:44;0.20;65.80
12847;DHT22;6492;48.128;8.320;2024-03-23T23:23:47;0.20;66.50
12847;DHT22;6492;48.128;8.320;2024-03-23T23:27:50;0.20;67.10
12847;DHT22;6492;48.128;8.320;2024-03-23T23:31:52;0.20;67.50
12847;DHT22;6492;48.128;8.320;2024-03-23T23:35:54;0.20;67.90
12847;DHT22;6492;48.128;8.320;2024-03-23T23:39:55;0.20;68.20
12847;DHT22;6492;48.128;8.320;2024-03-23T23:43:58;0.30;67.90
12847;DHT22;6492;48.128;8.320;2024-03-23T23:48:00;0.30;67.10
12847;DHT22;6492;48.128;8.320;2024-03-23T23:52:02;0.30;66.70
12847;DHT22;6492;48.128;8.320;2024-03-23T23:56:04;0.30;65.30
